Etusivu
METAR-TAF:

METAR-TAF

Lentoasemat :

Brønnøysund, Norja

Leveyspiiri: 65-28N, Pituuspiiri: 012-13E, korkeus merenpinnasta: 0 m

Tämänhetkinen sää

Tämä raportti tehtiin 19 minuuttia sitten, kello 12.20 UTC
Tuuli 3 kn etelästä, vaihdellen idän ja lounaan välillä
Lämpötila 9°C
Kosteus 71%
Ilmanpaine 1020 hPa
Näkyvyys 10 km tai enemmän
ei pilviä alle 1500 m:ssä eikä cumulonimbus-pilviä

METAR: ENBN 191220Z 17003KT 090V220 CAVOK 09/04 Q1020

Aika: 14:39 (12:39 UTC)

Sääennuste

Tämä raportti tehtiin 1 tunti ja 39 minuuttia sitten, kello 11.00 UTC
Ennuste voimassa 19. päivästä klo 12 UTC - 19. päivään klo 19 UTC
Tuuli 5 kn idästä/kaakosta
Näkyvyys 10 km tai enemmän
Muutamia pilviä 1500 ft:n korkeudessa

TAF: ENBN 191100Z 1912/1919 12005KT 9999 FEW015

Säähavainnot ja -ennusteet yli 4000 lentoasemalta (METAR- ja TAF-raportit).

Käytössä olevat sääasemat on merkitty karttaan keltaisilla ja punaisilla pisteillä.

Aseta hiiri pisteen päälle nähdäksesi sääaseman nimen.

Klikkaa sitten nähdäksesi säähavainnot ja -ennusteet.

Kartan vaihtaminen: klikkaa mustalla rastilla varustettuja vihreitä pisteitä, niin voit zoomata sisään; viivalla varustettua vihreää pistettä, niin voit zoomata ulos tai vihreitä nuolia, niin pääset viereisille kartoille.


METAR-TAF: